Time;durP1;ratioP1;P1;durP2;ratioP2;P2;SDS_P1;SDS_P2;PMS_P1;PMS_P2;Temp;Humidity;BMP_temperature;BMP_pressure;BME280_temperature;BME280_humidity;BME280_pressure;Samples;Min_cycle;Max_cycle;Signal;HPM_P1;HPM_P2
2021/11/15 00:00:48;;;;;;;89.65;54.42;;;179.40;2252.80;;;;;;5070728;28;20059;-77
2021/11/15 00:03:16;;;;;;;102.47;62.45;;;179.40;2252.80;;;;;;5071633;28;21544;-77
2021/11/15 00:05:42;;;;;;;108.38;63.45;;;179.40;2252.80;;;;;;5071246;28;20090;-77
2021/11/15 00:08:08;;;;;;;108.30;65.30;;;179.60;2252.80;;;;;;5073593;28;20029;-76
2021/11/15 00:10:34;;;;;;;108.82;68.10;;;179.40;2252.80;;;;;;5087971;28;20032;-77
2021/11/15 00:13:00;;;;;;;108.88;71.00;;;179.30;2252.80;;;;;;5071325;28;20024;-76
2021/11/15 00:15:29;;;;;;;115.70;69.43;;;179.40;2252.80;;;;;;5072443;28;20025;-77
2021/11/15 00:17:56;;;;;;;116.28;73.20;;;179.40;2252.80;;;;;;5094703;28;20055;-77
2021/11/15 00:20:22;;;;;;;125.75;73.85;;;179.40;2252.80;;;;;;5074178;28;20498;-77
2021/11/15 00:22:48;;;;;;;107.38;69.75;;;179.40;2252.80;;;;;;5081106;28;20028;-78
2021/11/15 00:25:15;;;;;;;102.93;63.72;;;179.40;2252.80;;;;;;5071849;28;20064;-77
2021/11/15 00:27:42;;;;;;;120.38;76.22;;;179.40;2252.80;;;;;;5071872;28;20051;-77
2021/11/15 00:30:10;;;;;;;124.40;76.78;;;179.40;2252.80;;;;;;5072346;28;20152;-77
2021/11/15 00:32:37;;;;;;;125.20;76.22;;;179.30;2252.80;;;;;;5071214;28;20025;-77
2021/11/15 00:35:04;;;;;;;134.80;82.22;;;179.30;2252.80;;;;;;5076166;28;20024;-77
2021/11/15 00:37:29;;;;;;;133.23;80.53;;;179.30;2252.80;;;;;;5069742;28;20020;-77
2021/11/15 00:39:55;;;;;;;133.50;81.82;;;179.40;2252.80;;;;;;5087976;28;20399;-77
2021/11/15 00:42:21;;;;;;;125.70;79.10;;;179.40;2252.80;;;;;;5071508;28;20044;-77
2021/11/15 00:44:47;;;;;;;131.88;79.75;;;179.30;2252.80;;;;;;5070797;28;20560;-76
2021/11/15 00:47:13;;;;;;;119.13;78.90;;;179.30;2252.80;;;;;;5071667;28;20032;-77
2021/11/15 00:49:39;;;;;;;124.45;79.97;;;179.40;2252.80;;;;;;5070348;28;20119;-76
2021/11/15 00:52:06;;;;;;;119.90;80.03;;;179.40;2252.80;;;;;;5072107;28;20548;-76
2021/11/15 00:54:33;;;;;;;129.23;82.57;;;179.30;2252.80;;;;;;5071511;28;20596;-77
2021/11/15 00:56:59;;;;;;;140.70;84.43;;;179.30;2252.80;;;;;;5070662;28;20501;-77
2021/11/15 00:59:27;;;;;;;134.77;85.38;;;179.30;2252.80;;;;;;5070324;28;20028;-77
2021/11/15 01:01:53;;;;;;;118.88;82.22;;;179.30;2252.80;;;;;;5071945;28;20025;-78
2021/11/15 01:04:19;;;;;;;129.00;81.40;;;179.30;2252.80;;;;;;5070394;28;20039;-77
2021/11/15 01:06:44;;;;;;;125.20;81.10;;;179.30;2252.80;;;;;;5071786;28;20449;-77
2021/11/15 01:09:10;;;;;;;135.60;79.53;;;179.30;2252.80;;;;;;5070039;28;20474;-78
2021/11/15 01:11:36;;;;;;;122.20;77.30;;;179.30;2252.80;;;;;;5071393;28;20028;-76
2021/11/15 01:14:02;;;;;;;130.15;84.80;;;179.40;2252.80;;;;;;5070789;28;20383;-77
2021/11/15 01:16:28;;;;;;;130.13;84.20;;;179.30;2252.80;;;;;;5070225;28;20024;-76
2021/11/15 01:18:54;;;;;;;129.48;81.57;;;179.30;2252.80;;;;;;5071728;28;20034;-77
2021/11/15 01:21:25;;;;;;;109.97;70.40;;;179.30;2252.80;;;;;;5087293;28;20112;-76
2021/11/15 01:23:51;;;;;;;121.43;75.13;;;179.20;2252.80;;;;;;5070605;28;20029;-76
2021/11/15 01:26:17;;;;;;;115.18;74.50;;;179.20;2252.80;;;;;;5070108;28;20038;-76
2021/11/15 01:28:43;;;;;;;116.10;76.35;;;179.20;2252.80;;;;;;5087488;28;20056;-77
2021/11/15 01:31:09;;;;;;;114.40;73.03;;;179.20;2252.80;;;;;;5071684;28;20059;-76
2021/11/15 01:33:35;;;;;;;111.45;73.72;;;179.20;2252.80;;;;;;5071579;28;20108;-76
2021/11/15 01:36:01;;;;;;;108.55;75.13;;;154.50;2252.80;;;;;;5087703;28;20032;-77
2021/11/15 01:38:27;;;;;;;122.70;78.30;;;154.50;2252.80;;;;;;5086569;28;20772;-77
2021/11/15 01:40:52;;;;;;;121.68;80.85;;;154.50;2252.80;;;;;;5069513;28;20079;-77
2021/11/15 01:43:18;;;;;;;144.35;94.63;;;154.40;2252.80;;;;;;5067250;28;20461;-76
2021/11/15 01:45:44;;;;;;;168.98;110.18;;;154.40;2252.80;;;;;;5070635;28;20021;-77
2021/11/15 01:48:13;;;;;;;188.32;115.65;;;154.50;2252.80;;;;;;5071186;28;20028;-77
2021/11/15 01:50:39;;;;;;;177.65;108.07;;;154.50;2252.80;;;;;;5070284;28;20028;-76
2021/11/15 01:53:07;;;;;;;197.57;117.45;;;154.50;2252.80;;;;;;5071347;28;20027;-77
2021/11/15 01:55:33;;;;;;;261.50;158.30;;;179.20;2252.80;;;;;;5069892;28;20017;-77
2021/11/15 01:58:03;;;;;;;308.65;187.43;;;179.20;2252.80;;;;;;5069958;28;20048;-77
2021/11/15 02:00:34;;;;;;;296.98;179.05;;;179.20;2252.80;;;;;;5069795;28;20074;-77
2021/11/15 02:03:01;;;;;;;264.88;167.02;;;179.30;2252.80;;;;;;5071090;28;20021;-77
2021/11/15 02:05:26;;;;;;;238.80;147.48;;;179.30;2252.80;;;;;;5070945;28;20047;-77
2021/11/15 02:07:52;;;;;;;217.82;129.93;;;179.30;2252.80;;;;;;5069094;28;20395;-77
2021/11/15 02:10:19;;;;;;;182.13;112.68;;;179.30;2252.80;;;;;;5069479;28;20043;-77
2021/11/15 02:12:45;;;;;;;179.98;107.35;;;179.30;2252.80;;;;;;5071291;28;20031;-77
2021/11/15 02:15:13;;;;;;;160.18;103.15;;;179.30;2252.80;;;;;;5069769;28;20035;-76
2021/11/15 02:17:44;;;;;;;172.57;111.18;;;179.30;2252.80;;;;;;5069324;28;20033;-77
2021/11/15 02:20:23;;;;;;;179.38;117.05;;;179.30;2252.80;;;;;;5070296;28;20112;-76
2021/11/15 02:22:51;;;;;;;171.35;109.10;;;179.30;2252.80;;;;;;5070071;28;20066;-77
2021/11/15 02:25:21;;;;;;;165.73;105.25;;;179.20;2252.80;;;;;;5070284;28;20031;-77
2021/11/15 02:27:47;;;;;;;163.73;108.05;;;179.20;2252.80;;;;;;5071257;28;20025;-77
2021/11/15 02:30:20;;;;;;;154.60;96.30;;;154.50;2252.80;;;;;;5070887;28;20475;-77
2021/11/15 02:32:46;;;;;;;148.25;99.15;;;154.40;2252.80;;;;;;5070223;28;20020;-77
2021/11/15 02:35:13;;;;;;;150.18;98.65;;;154.40;2252.80;;;;;;5069496;28;20059;-77
2021/11/15 02:37:39;;;;;;;153.95;93.68;;;154.40;2252.80;;;;;;5069167;28;20119;-77
2021/11/15 02:40:08;;;;;;;150.65;93.40;;;154.40;2252.80;;;;;;5070545;28;20514;-77
2021/11/15 02:42:34;;;;;;;133.63;92.63;;;154.30;2252.80;;;;;;5071024;28;20040;-77
2021/11/15 02:45:01;;;;;;;137.82;91.88;;;154.40;2252.80;;;;;;5069634;28;20541;-76
2021/11/15 02:47:26;;;;;;;138.65;89.03;;;154.40;2252.80;;;;;;5069863;28;20020;-77
2021/11/15 02:49:52;;;;;;;131.32;86.15;;;154.40;2252.80;;;;;;5086155;28;20025;-76
2021/11/15 02:52:19;;;;;;;134.40;87.60;;;154.30;2252.80;;;;;;5070669;28;20029;-77
2021/11/15 02:54:46;;;;;;;131.32;87.28;;;154.30;2252.80;;;;;;5071119;28;20039;-76
2021/11/15 02:57:19;;;;;;;138.05;90.88;;;154.30;2252.80;;;;;;5086276;28;20645;-77
2021/11/15 02:59:46;;;;;;;158.98;108.38;;;154.30;2252.80;;;;;;5086582;28;20031;-76
2021/11/15 03:02:12;;;;;;;175.77;117.50;;;154.20;2252.80;;;;;;5070723;28;20053;-77
2021/11/15 03:04:39;;;;;;;152.00;95.22;;;154.20;2252.80;;;;;;5071120;28;20055;-77
2021/11/15 03:07:05;;;;;;;138.82;92.72;;;154.20;2252.80;;;;;;5070723;28;20021;-76
2021/11/15 03:09:31;;;;;;;139.82;89.63;;;154.20;2252.80;;;;;;5086412;28;20085;-77
2021/11/15 03:11:56;;;;;;;146.55;92.85;;;154.10;2252.80;;;;;;5069519;28;20782;-76
2021/11/15 03:14:22;;;;;;;135.68;89.13;;;154.10;2252.80;;;;;;5070313;28;20039;-76
2021/11/15 03:16:48;;;;;;;126.70;83.95;;;154.10;2252.80;;;;;;5050560;28;20479;-76
2021/11/15 03:19:14;;;;;;;121.38;80.05;;;154.10;2252.80;;;;;;5050145;28;20753;-76
2021/11/15 03:21:40;;;;;;;127.70;79.25;;;154.00;2252.80;;;;;;5054522;28;20032;-76
2021/11/15 03:24:06;;;;;;;129.15;78.80;;;154.00;2252.80;;;;;;5069167;28;20021;-76
2021/11/15 03:26:32;;;;;;;112.85;76.43;;;154.00;2252.80;;;;;;5069774;28;20032;-76
2021/11/15 03:28:58;;;;;;;108.80;71.00;;;153.90;2252.80;;;;;;5052297;28;20020;-76
2021/11/15 03:31:31;;;;;;;112.28;70.18;;;153.90;2252.80;;;;;;5054232;28;20025;-77
2021/11/15 03:34:00;;;;;;;111.95;69.25;;;153.80;2252.80;;;;;;5053936;28;20040;-77
2021/11/15 03:36:26;;;;;;;112.78;72.20;;;153.70;2252.80;;;;;;5052350;28;20090;-76
2021/11/15 03:38:54;;;;;;;117.43;74.75;;;153.70;2252.80;;;;;;5053095;28;20086;-76
2021/11/15 03:41:21;;;;;;;114.70;72.63;;;153.60;2252.80;;;;;;5053413;28;20064;-76
2021/11/15 03:43:46;;;;;;;171.30;73.93;;;153.60;2252.80;;;;;;5053773;28;20071;-76
2021/11/15 03:46:13;;;;;;;137.35;73.50;;;128.80;2252.80;;;;;;5069628;28;20041;-76
2021/11/15 03:48:40;;;;;;;111.75;73.97;;;128.70;2252.80;;;;;;5073865;28;20491;-77
2021/11/15 03:51:05;;;;;;;103.57;68.30;;;128.70;2252.80;;;;;;5073560;28;20029;-77
2021/11/15 03:53:37;;;;;;;140.38;70.88;;;128.70;2252.80;;;;;;5089465;28;20028;-77
2021/11/15 03:56:10;;;;;;;132.73;68.53;;;128.70;2252.80;;;;;;5073402;28;20025;-76
2021/11/15 03:58:36;;;;;;;103.45;64.40;;;128.60;2252.80;;;;;;5088998;28;20036;-77
2021/11/15 04:01:02;;;;;;;115.35;62.28;;;128.50;2252.80;;;;;;5072491;28;20037;-77
2021/11/15 04:03:31;;;;;;;103.53;59.95;;;128.40;2252.80;;;;;;5073321;28;20088;-77
2021/11/15 04:06:02;;;;;;;121.53;64.60;;;128.40;2252.80;;;;;;5089170;28;20477;-77
2021/11/15 04:08:28;;;;;;;124.22;64.25;;;128.30;2252.80;;;;;;5073116;28;20372;-78
2021/11/15 04:10:54;;;;;;;123.20;63.38;;;128.30;2252.80;;;;;;5073072;28;20033;-77
2021/11/15 04:13:31;;;;;;;109.07;64.53;;;128.30;2252.80;;;;;;5062096;28;20036;-77
2021/11/15 04:16:00;;;;;;;129.18;66.57;;;128.20;2252.80;;;;;;5087933;28;20025;-77
2021/11/15 04:18:30;;;;;;;111.13;67.72;;;128.30;2252.80;;;;;;5073355;28;20626;-77
2021/11/15 04:20:57;;;;;;;116.20;66.43;;;128.30;2252.80;;;;;;5072903;28;20024;-76
2021/11/15 04:23:23;;;;;;;123.07;68.20;;;128.20;2252.80;;;;;;5073524;28;20091;-77
2021/11/15 04:25:49;;;;;;;109.45;68.50;;;128.20;2252.80;;;;;;5071251;28;20116;-77
2021/11/15 04:28:15;;;;;;;119.70;67.95;;;128.20;2252.80;;;;;;5071912;28;20032;-77
2021/11/15 04:30:41;;;;;;;185.88;69.35;;;128.20;2252.80;;;;;;5070773;28;20364;-79
2021/11/15 04:33:08;;;;;;;110.50;68.00;;;128.10;2252.80;;;;;;5071091;28;20108;-77
2021/11/15 04:35:35;;;;;;;203.75;69.47;;;128.10;2252.80;;;;;;5071600;28;20067;-78
2021/11/15 04:38:02;;;;;;;127.90;69.13;;;128.00;2252.80;;;;;;5070861;28;20483;-78
2021/11/15 04:40:28;;;;;;;203.73;74.20;;;128.00;2252.80;;;;;;5071286;28;20048;-78
2021/11/15 04:42:54;;;;;;;171.18;70.85;;;103.30;2227.20;;;;;;5069196;28;20652;-78
2021/11/15 04:45:20;;;;;;;151.95;69.32;;;103.30;2227.20;;;;;;5071181;28;20540;-77
2021/11/15 04:47:47;;;;;;;230.57;71.35;;;103.20;2227.20;;;;;;5070957;28;20058;-78
2021/11/15 04:50:14;;;;;;;162.85;65.03;;;103.20;2227.20;;;;;;5071339;28;20120;-79
2021/11/15 04:52:40;;;;;;;103.03;60.90;;;103.00;2227.20;;;;;;5071337;28;20036;-78
2021/11/15 04:55:08;;;;;;;157.00;64.35;;;102.90;2227.20;;;;;;5072014;28;20036;-78
2021/11/15 04:57:35;;;;;;;100.47;60.55;;;102.90;2227.20;;;;;;5069874;28;20055;-78
2021/11/15 05:00:06;;;;;;;128.52;62.85;;;102.90;2227.20;;;;;;5070621;28;20029;-79
2021/11/15 05:02:31;;;;;;;192.52;68.72;;;102.90;2227.20;;;;;;5070826;28;20031;-77
2021/11/15 05:04:57;;;;;;;168.68;65.63;;;102.80;2227.20;;;;;;5070519;28;20029;-77
2021/11/15 05:07:23;;;;;;;170.65;67.10;;;102.80;2227.20;;;;;;5070950;28;20027;-78
2021/11/15 05:09:49;;;;;;;135.10;64.75;;;102.70;2227.20;;;;;;5070606;28;20395;-76
2021/11/15 05:12:14;;;;;;;141.13;67.97;;;102.70;2227.20;;;;;;5087658;28;20029;-76
2021/11/15 05:14:40;;;;;;;101.88;65.88;;;102.70;2227.20;;;;;;5069592;28;20043;-77
2021/11/15 05:17:06;;;;;;;124.03;64.65;;;102.80;2227.20;;;;;;5070673;28;20035;-76
2021/11/15 05:19:31;;;;;;;157.45;66.50;;;102.70;2227.20;;;;;;5071826;28;20024;-76
2021/11/15 05:21:57;;;;;;;147.05;65.43;;;102.70;2227.20;;;;;;5071652;28;20029;-76
2021/11/15 05:24:23;;;;;;;144.07;67.68;;;102.70;2227.20;;;;;;5069736;28;20119;-76
2021/11/15 05:26:49;;;;;;;121.55;67.82;;;102.60;2227.20;;;;;;5070052;28;20021;-76
2021/11/15 05:29:15;;;;;;;130.43;68.47;;;102.70;2227.20;;;;;;5070628;28;20024;-76
2021/11/15 05:31:41;;;;;;;130.25;66.13;;;102.70;2227.20;;;;;;5070418;28;20027;-76
2021/11/15 05:34:07;;;;;;;117.25;64.40;;;102.70;2227.20;;;;;;5071979;28;20028;-76
2021/11/15 05:36:33;;;;;;;120.35;66.07;;;102.60;2227.20;;;;;;5070264;28;20054;-76
2021/11/15 05:38:59;;;;;;;139.80;61.70;;;102.60;2227.20;;;;;;5071966;28;20384;-76
2021/11/15 05:41:25;;;;;;;143.75;60.58;;;102.70;2227.20;;;;;;5070139;28;20041;-76
2021/11/15 05:43:51;;;;;;;108.82;59.30;;;102.70;2227.20;;;;;;5087375;28;20061;-77
2021/11/15 05:46:17;;;;;;;84.63;54.75;;;102.70;2227.20;;;;;;5069335;28;20460;-77
2021/11/15 05:48:43;;;;;;;98.00;58.10;;;102.70;2227.20;;;;;;5069617;28;20021;-77
2021/11/15 05:51:09;;;;;;;93.88;57.28;;;102.70;2227.20;;;;;;5070322;28;20691;-77
2021/11/15 05:53:38;;;;;;;148.40;66.20;;;102.60;2227.20;;;;;;5071053;28;20024;-76
2021/11/15 05:56:07;;;;;;;98.07;56.67;;;102.50;2227.20;;;;;;5070282;28;20145;-76
2021/11/15 05:58:33;;;;;;;105.70;54.58;;;102.70;2227.20;;;;;;5070876;28;20013;-76
2021/11/15 06:00:59;;;;;;;95.20;53.03;;;102.70;2227.20;;;;;;5070230;28;20028;-77
2021/11/15 06:03:27;;;;;;;76.35;53.80;;;102.80;2227.20;;;;;;5086979;28;20032;-77
2021/11/15 06:05:53;;;;;;;82.25;55.85;;;102.90;2227.20;;;;;;5069702;28;20028;-78
2021/11/15 06:08:19;;;;;;;93.82;57.92;;;102.90;2227.20;;;;;;5069116;28;20040;-79
2021/11/15 06:10:45;;;;;;;93.78;59.63;;;102.90;2227.20;;;;;;5069518;28;20107;-78
2021/11/15 06:13:11;;;;;;;102.03;60.20;;;103.00;2227.20;;;;;;5070507;28;20119;-79
2021/11/15 06:15:38;;;;;;;112.30;61.17;;;103.10;2227.20;;;;;;5070987;28;20056;-79
2021/11/15 06:18:03;;;;;;;91.95;58.20;;;103.10;2227.20;;;;;;5071360;28;20458;-79
2021/11/15 06:20:29;;;;;;;121.90;62.83;;;103.10;2227.20;;;;;;5069589;28;20116;-80
2021/11/15 06:22:55;;;;;;;84.93;57.78;;;103.10;2227.20;;;;;;5087083;28;20118;-80
2021/11/15 06:25:21;;;;;;;110.53;60.85;;;103.10;2227.20;;;;;;5069375;28;20086;-80
2021/11/15 06:27:47;;;;;;;97.05;59.65;;;103.10;2227.20;;;;;;5069851;28;20021;-79
2021/11/15 06:30:16;;;;;;;109.55;57.30;;;103.10;2227.20;;;;;;5069135;28;20534;-79
2021/11/15 06:32:42;;;;;;;75.07;53.78;;;103.10;2227.20;;;;;;5069542;28;20021;-78
2021/11/15 06:35:09;;;;;;;101.68;60.45;;;103.10;2227.20;;;;;;5071331;28;20506;-78
2021/11/15 06:37:36;;;;;;;83.22;56.38;;;103.00;2227.20;;;;;;5080834;28;20028;-78
2021/11/15 06:40:03;;;;;;;83.38;54.70;;;103.00;2227.20;;;;;;5075887;28;20029;-79
2021/11/15 06:42:29;;;;;;;87.40;56.90;;;103.10;2227.20;;;;;;5066645;28;20057;-79
2021/11/15 06:44:55;;;;;;;71.30;53.80;;;103.20;2227.20;;;;;;5069364;28;20075;-79
2021/11/15 06:47:21;;;;;;;76.75;54.53;;;103.30;2227.20;;;;;;5070453;28;20025;-78
2021/11/15 06:49:51;;;;;;;72.78;51.92;;;103.30;2227.20;;;;;;5070248;28;20036;-79
2021/11/15 06:52:18;;;;;;;69.75;49.88;;;128.00;2252.80;;;;;;5085611;28;20028;-78
2021/11/15 06:54:45;;;;;;;61.05;46.38;;;128.10;2252.80;;;;;;5071998;28;20036;-79
2021/11/15 06:57:10;;;;;;;67.82;47.53;;;128.10;2252.80;;;;;;5072204;28;20062;-79
2021/11/15 06:59:36;;;;;;;65.38;45.33;;;128.10;2252.80;;;;;;5073056;28;20117;-78
2021/11/15 07:02:02;;;;;;;67.32;46.03;;;128.20;2252.80;;;;;;5073777;28;20089;-78
2021/11/15 07:04:28;;;;;;;66.57;50.08;;;128.20;2252.80;;;;;;5073185;28;20029;-78
2021/11/15 07:06:53;;;;;;;79.53;56.28;;;128.30;2252.80;;;;;;5072648;28;20037;-78
2021/11/15 07:09:19;;;;;;;83.15;59.35;;;128.30;2252.80;;;;;;5089193;28;20043;-78
2021/11/15 07:11:45;;;;;;;84.97;63.60;;;128.40;2252.80;;;;;;5073625;28;20497;-79
2021/11/15 07:14:11;;;;;;;104.93;72.22;;;128.50;2252.80;;;;;;5089576;28;20029;-78
2021/11/15 07:16:37;;;;;;;99.47;68.47;;;128.60;2252.80;;;;;;5078320;28;20028;-77
2021/11/15 07:19:04;;;;;;;103.40;71.15;;;128.70;2252.80;;;;;;5077918;28;20123;-78
2021/11/15 07:21:30;;;;;;;98.15;69.03;;;128.80;2252.80;;;;;;5072666;28;20064;-79
2021/11/15 07:23:56;;;;;;;103.00;70.82;;;128.90;2252.80;;;;;;5073604;28;20029;-78
2021/11/15 07:26:22;;;;;;;97.53;68.40;;;128.90;2252.80;;;;;;5072366;28;20028;-78
2021/11/15 07:28:49;;;;;;;101.38;70.82;;;128.90;2252.80;;;;;;5073559;28;20023;-78
2021/11/15 07:31:16;;;;;;;105.68;77.93;;;153.60;2252.80;;;;;;5073445;28;20654;-77
2021/11/15 07:33:42;;;;;;;98.38;71.80;;;153.80;2252.80;;;;;;5073328;28;20024;-77
2021/11/15 07:36:07;;;;;;;88.60;64.55;;;153.80;2252.80;;;;;;5072792;28;20037;-77
2021/11/15 07:38:33;;;;;;;91.85;64.65;;;153.90;2252.80;;;;;;5073474;28;20074;-77
2021/11/15 07:40:59;;;;;;;92.07;68.22;;;154.00;2252.80;;;;;;5072541;28;20499;-78
2021/11/15 07:43:25;;;;;;;93.93;62.75;;;154.10;2252.80;;;;;;5071972;28;20040;-77
2021/11/15 07:45:51;;;;;;;90.85;67.90;;;154.10;2252.80;;;;;;5069063;28;20850;-78
2021/11/15 07:48:17;;;;;;;98.88;69.50;;;154.30;2252.80;;;;;;5073966;28;20021;-77
2021/11/15 07:50:44;;;;;;;96.68;65.53;;;154.50;2252.80;;;;;;5085906;28;20113;-77
2021/11/15 07:53:10;;;;;;;88.03;62.53;;;179.30;2252.80;;;;;;5103290;28;20024;-77
2021/11/15 07:55:36;;;;;;;86.30;61.50;;;179.30;2252.80;;;;;;5090146;28;20054;-77
2021/11/15 07:58:04;;;;;;;79.78;58.15;;;179.50;2252.80;;;;;;5088701;28;20036;-77
2021/11/15 08:00:30;;;;;;;81.50;59.90;;;179.60;2252.80;;;;;;5077386;28;20082;-77
2021/11/15 08:02:56;;;;;;;95.05;61.65;;;179.80;2252.80;;;;;;5093350;28;20027;-77
2021/11/15 08:05:24;;;;;;;83.63;59.22;;;179.90;2252.80;;;;;;5091143;28;20028;-77
2021/11/15 08:07:51;;;;;;;83.90;57.53;;;180.00;2252.80;;;;;;5086087;28;20020;-77
2021/11/15 08:10:19;;;;;;;89.65;60.08;;;204.80;2252.80;;;;;;5093411;28;20020;-76
2021/11/15 08:12:47;;;;;;;86.63;58.10;;;204.80;2252.80;;;;;;5088572;28;20372;-77
2021/11/15 08:15:17;;;;;;;78.63;57.20;;;204.90;2252.80;;;;;;5085084;28;20035;-76
2021/11/15 08:17:46;;;;;;;75.40;55.30;;;205.10;2252.80;;;;;;5078568;28;20032;-77
2021/11/15 08:20:17;;;;;;;80.97;54.97;;;205.30;2252.80;;;;;;5091469;28;20062;-77
2021/11/15 08:22:47;;;;;;;67.20;50.03;;;205.60;2252.80;;;;;;5085627;28;20024;-77
2021/11/15 08:25:51;;;;;;;64.93;47.63;;;230.50;2252.80;;;;;;5091387;28;20032;-77
2021/11/15 08:28:18;;;;;;;70.45;53.55;;;230.80;2252.80;;;;;;5090972;28;20140;-76
2021/11/15 08:30:44;;;;;;;73.85;53.70;;;231.10;2252.80;;;;;;5091562;28;20055;-77
2021/11/15 08:33:13;;;;;;;80.72;53.38;;;256.00;2252.80;;;;;;5088432;28;20554;-77
2021/11/15 08:35:39;;;;;;;61.88;44.60;;;256.30;2252.80;;;;;;5102794;28;20040;-76
2021/11/15 08:38:17;;;;;;;72.90;51.65;;;256.80;2252.80;;;;;;5092773;28;20441;-76
2021/11/15 08:40:44;;;;;;;67.72;51.40;;;281.70;2278.40;;;;;;5085513;28;20024;-77
2021/11/15 08:43:10;;;;;;;65.18;47.92;;;282.00;2278.40;;;;;;5089873;28;20055;-77
2021/11/15 08:45:37;;;;;;;49.92;38.25;;;282.40;2278.40;;;;;;5084136;28;20032;-76
2021/11/15 08:48:03;;;;;;;52.00;40.30;;;307.20;2304.00;;;;;;5079094;28;20070;-78
2021/11/15 08:50:30;;;;;;;64.57;43.10;;;307.60;2304.00;;;;;;5076882;28;20064;-79
2021/11/15 08:52:57;;;;;;;64.00;42.25;;;307.80;2304.00;;;;;;5079111;28;20054;-77
2021/11/15 08:55:23;;;;;;;67.65;44.63;;;308.10;2304.00;;;;;;5078856;28;20524;-76
2021/11/15 08:57:51;;;;;;;52.83;39.60;;;333.00;2329.60;;;;;;5086672;28;20577;-77
2021/11/15 09:00:17;;;;;;;49.22;35.70;;;333.10;2329.60;;;;;;5090899;28;20157;-76
2021/11/15 09:02:43;;;;;;;40.83;32.55;;;333.30;2329.60;;;;;;5077769;28;20135;-77
2021/11/15 09:05:09;;;;;;;45.22;31.70;;;333.60;2329.60;;;;;;5080720;28;20028;-76
2021/11/15 09:07:37;;;;;;;49.10;34.13;;;333.70;2329.60;;;;;;5075254;28;20040;-77
2021/11/15 09:10:05;;;;;;;38.63;30.98;;;358.60;2329.60;;;;;;5084519;28;20481;-76
2021/11/15 09:12:32;;;;;;;38.60;28.98;;;359.10;2329.60;;;;;;5088983;28;20032;-77
2021/11/15 09:14:58;;;;;;;39.65;28.05;;;359.10;2329.60;;;;;;5088763;28;20107;-76
2021/11/15 09:17:24;;;;;;;46.53;30.30;;;359.30;2329.60;;;;;;5087847;28;20800;-77
2021/11/15 09:19:50;;;;;;;38.45;28.60;;;384.20;2329.60;;;;;;5086646;28;20482;-77
2021/11/15 09:22:16;;;;;;;32.85;26.30;;;384.40;2329.60;;;;;;5083760;28;20479;-77
2021/11/15 09:24:43;;;;;;;34.15;26.00;;;384.60;2329.60;;;;;;5081845;28;20031;-77
2021/11/15 09:27:13;;;;;;;35.70;27.27;;;384.90;2329.60;;;;;;5083116;28;21436;-77
2021/11/15 09:29:40;;;;;;;30.50;24.35;;;409.70;2355.20;;;;;;5087130;28;20511;-76
2021/11/15 09:32:06;;;;;;;44.00;30.42;;;409.80;2355.20;;;;;;5084984;28;20028;-76
2021/11/15 09:34:32;;;;;;;30.95;22.60;;;410.30;2355.20;;;;;;5074980;28;20178;-75
2021/11/15 09:36:58;;;;;;;26.23;20.58;;;410.10;2355.20;;;;;;5081872;28;20519;-75
2021/11/15 09:39:25;;;;;;;36.55;27.25;;;410.30;2355.20;;;;;;5078276;28;20023;-75
2021/11/15 09:41:51;;;;;;;37.65;26.95;;;410.50;2355.20;;;;;;5092520;28;20093;-77
2021/11/15 09:44:17;;;;;;;30.08;23.33;;;435.30;2355.20;;;;;;5076594;28;20047;-75
2021/11/15 09:46:46;;;;;;;30.05;22.42;;;435.30;2355.20;;;;;;5095086;28;20043;-75
2021/11/15 09:49:12;;;;;;;28.38;21.00;;;435.40;2355.20;;;;;;5077104;28;20046;-75
2021/11/15 09:51:42;;;;;;;25.42;18.17;;;435.30;2355.20;;;;;;5070412;28;20433;-76
2021/11/15 09:54:09;;;;;;;25.85;18.73;;;435.60;2355.20;;;;;;5078013;28;20024;-78
2021/11/15 09:56:37;;;;;;;27.48;19.95;;;435.90;2355.20;;;;;;5074372;28;20029;-76
2021/11/15 09:59:05;;;;;;;27.35;19.15;;;436.10;2355.20;;;;;;5082152;28;20139;-77
2021/11/15 10:01:31;;;;;;;28.83;18.45;;;435.90;2355.20;;;;;;5085469;28;20031;-76
2021/11/15 10:03:57;;;;;;;30.65;19.65;;;436.10;2355.20;;;;;;5082584;28;20095;-78
2021/11/15 10:06:22;;;;;;;23.45;17.92;;;460.90;2380.80;;;;;;5084880;28;20078;-76
2021/11/15 10:08:54;;;;;;;24.42;18.05;;;460.90;2380.80;;;;;;5085641;28;20020;-76
2021/11/15 10:11:22;;;;;;;26.65;19.17;;;461.30;2380.80;;;;;;5087292;28;20482;-76
2021/11/15 10:13:49;;;;;;;24.52;19.70;;;461.40;2380.80;;;;;;5081530;28;20097;-77
2021/11/15 10:16:16;;;;;;;25.42;18.80;;;461.70;2380.80;;;;;;5085064;28;20031;-76
2021/11/15 10:18:57;;;;;;;23.38;18.10;;;486.40;2380.80;;;;;;5077336;28;20440;-78
2021/11/15 10:21:41;;;;;;;21.90;16.33;;;486.60;2380.80;;;;;;5083039;28;20028;-76
2021/11/15 10:24:09;;;;;;;18.63;15.25;;;486.60;2380.80;;;;;;5091898;28;20024;-76
2021/11/15 10:26:57;;;;;;;25.10;16.20;;;486.60;2380.80;;;;;;5087554;28;20024;-75
2021/11/15 10:29:25;;;;;;;23.85;17.35;;;486.60;2380.80;;;;;;5093097;28;20064;-75
2021/11/15 10:31:55;;;;;;;23.02;16.88;;;487.00;2380.80;;;;;;5095606;28;20028;-77
2021/11/15 10:34:28;;;;;;;29.00;18.83;;;487.10;2380.80;;;;;;5094040;28;20028;-74
2021/11/15 10:36:59;;;;;;;28.70;19.17;;;487.30;2380.80;;;;;;5084839;28;20028;-75
2021/11/15 10:39:46;;;;;;;29.75;19.40;;;512.00;2380.80;;;;;;5076556;28;20028;-80
2021/11/15 10:42:18;;;;;;;26.27;17.73;;;512.00;2380.80;;;;;;5100079;28;20040;-79
2021/11/15 10:44:48;;;;;;;36.42;21.98;;;487.30;2380.80;;;;;;5083511;28;20028;-79
2021/11/15 10:47:16;;;;;;;26.90;18.75;;;487.30;2380.80;;;;;;5101309;28;20035;-79
2021/11/15 10:49:42;;;;;;;24.45;16.77;;;512.00;2380.80;;;;;;5081514;28;20012;-79
2021/11/15 10:52:14;;;;;;;24.33;19.27;;;512.20;2380.80;;;;;;5091695;28;20039;-77
2021/11/15 10:54:53;;;;;;;26.45;16.50;;;512.10;2380.80;;;;;;5084066;28;20090;-79
2021/11/15 10:57:33;;;;;;;20.67;15.57;;;512.40;2380.80;;;;;;5098038;28;20028;-78
2021/11/15 11:00:08;;;;;;;21.83;14.52;;;512.40;2380.80;;;;;;5082235;28;20082;-78
2021/11/15 11:02:37;;;;;;;18.60;14.77;;;512.80;2380.80;;;;;;5089221;28;20074;-79
2021/11/15 11:05:04;;;;;;;18.85;12.82;;;537.60;2406.40;;;;;;5087083;28;20073;-79
2021/11/15 11:07:30;;;;;;;20.30;15.95;;;537.70;2380.80;;;;;;5083560;28;20562;-78
2021/11/15 11:10:00;;;;;;;15.77;12.00;;;512.80;2304.00;;;;;;5087698;28;20107;-79
2021/11/15 11:12:32;;;;;;;18.60;14.00;;;512.70;2329.60;;;;;;5086433;28;20027;-79
2021/11/15 11:16:08;;;;;;;17.85;13.05;;;512.70;2329.60;;;;;;5082007;28;20032;-78
2021/11/15 11:18:13;;;;;;;17.42;13.25;;;512.70;2329.60;;;;;;5074724;28;20498;-79
2021/11/15 11:26:33;;;;;;;18.45;14.85;;;512.50;2329.60;;;;;;5083959;28;20017;-78
2021/11/15 11:29:07;;;;;;;17.30;13.05;;;537.80;2304.00;;;;;;5072552;28;20020;-78
2021/11/15 11:31:34;;;;;;;19.08;13.48;;;512.40;2329.60;;;;;;5083820;28;20012;-80
2021/11/15 11:34:00;;;;;;;19.60;13.90;;;512.70;2304.00;;;;;;5077731;28;20036;-79
2021/11/15 11:36:26;;;;;;;18.70;12.95;;;512.90;2304.00;;;;;;5080410;28;20067;-79
2021/11/15 11:38:53;;;;;;;19.23;12.38;;;537.60;2278.40;;;;;;5081569;28;20388;-78
2021/11/15 11:41:19;;;;;;;22.73;14.18;;;537.70;2252.80;;;;;;5096766;28;20032;-79
2021/11/15 11:43:47;;;;;;;18.23;11.35;;;537.70;2278.40;;;;;;5081771;28;20028;-79
2021/11/15 11:46:15;;;;;;;14.35;11.80;;;537.90;2252.80;;;;;;5075205;28;20025;-79
2021/11/15 11:48:45;;;;;;;17.35;12.43;;;538.00;2227.20;;;;;;5077693;28;20016;-79
2021/11/15 11:51:13;;;;;;;20.38;15.25;;;538.00;2227.20;;;;;;5073957;28;20025;-79
2021/11/15 11:53:39;;;;;;;23.25;14.77;;;538.10;2227.20;;;;;;5079866;28;20375;-79
2021/11/15 11:56:21;;;;;;;14.98;12.73;;;538.20;2201.60;;;;;;5079080;28;20032;-79
2021/11/15 11:58:50;;;;;;;18.85;13.80;;;538.10;2176.00;;;;;;5113161;27;20027;-79
2021/11/15 12:01:24;;;;;;;15.93;12.35;;;538.10;2201.60;;;;;;5081842;28;20029;-79